sensor_id;sensor_type;location;lat;lon;timestamp;P1;durP1;ratioP1;P2;durP2;ratioP2
13683;SDS011;6914;53.552;9.908;2022-12-15T00:01:17;22.53;;;13.77;;
13683;SDS011;6914;53.552;9.908;2022-12-15T00:04:01;20.87;;;12.17;;
13683;SDS011;6914;53.552;9.908;2022-12-15T00:06:47;25.93;;;12.20;;
13683;SDS011;6914;53.552;9.908;2022-12-15T00:09:31;21.33;;;13.30;;
13683;SDS011;6914;53.552;9.908;2022-12-15T00:12:15;27.20;;;14.13;;
13683;SDS011;6914;53.552;9.908;2022-12-15T00:14:59;25.70;;;12.70;;
13683;SDS011;6914;53.552;9.908;2022-12-15T00:17:43;21.83;;;12.20;;
13683;SDS011;6914;53.552;9.908;2022-12-15T00:20:27;25.33;;;13.27;;
13683;SDS011;6914;53.552;9.908;2022-12-15T00:23:13;29.73;;;13.93;;
13683;SDS011;6914;53.552;9.908;2022-12-15T00:25:57;29.93;;;14.33;;
13683;SDS011;6914;53.552;9.908;2022-12-15T00:28:41;23.03;;;13.57;;
13683;SDS011;6914;53.552;9.908;2022-12-15T00:31:25;25.43;;;14.17;;
13683;SDS011;6914;53.552;9.908;2022-12-15T00:34:10;24.87;;;14.70;;
13683;SDS011;6914;53.552;9.908;2022-12-15T00:36:54;23.57;;;12.87;;
13683;SDS011;6914;53.552;9.908;2022-12-15T00:39:40;24.17;;;12.30;;
13683;SDS011;6914;53.552;9.908;2022-12-15T00:42:09;35.50;;;13.17;;
13683;SDS011;6914;53.552;9.908;2022-12-15T00:44:36;17.93;;;12.70;;
13683;SDS011;6914;53.552;9.908;2022-12-15T00:47:03;24.40;;;13.13;;
13683;SDS011;6914;53.552;9.908;2022-12-15T00:49:30;21.83;;;13.60;;
13683;SDS011;6914;53.552;9.908;2022-12-15T00:52:14;23.37;;;13.43;;
13683;SDS011;6914;53.552;9.908;2022-12-15T00:55:02;22.10;;;11.87;;
13683;SDS011;6914;53.552;9.908;2022-12-15T00:57:47;23.73;;;14.10;;
13683;SDS011;6914;53.552;9.908;2022-12-15T01:00:31;21.07;;;12.43;;
13683;SDS011;6914;53.552;9.908;2022-12-15T01:03:16;19.40;;;11.80;;
13683;SDS011;6914;53.552;9.908;2022-12-15T01:06:03;18.37;;;11.73;;
13683;SDS011;6914;53.552;9.908;2022-12-15T01:08:48;17.80;;;11.63;;
13683;SDS011;6914;53.552;9.908;2022-12-15T01:11:33;20.70;;;13.17;;
13683;SDS011;6914;53.552;9.908;2022-12-15T01:14:18;21.63;;;11.97;;
13683;SDS011;6914;53.552;9.908;2022-12-15T01:17:02;20.50;;;12.57;;
13683;SDS011;6914;53.552;9.908;2022-12-15T01:19:46;26.33;;;14.63;;
13683;SDS011;6914;53.552;9.908;2022-12-15T01:22:30;25.60;;;12.60;;
13683;SDS011;6914;53.552;9.908;2022-12-15T01:24:57;28.20;;;14.43;;
13683;SDS011;6914;53.552;9.908;2022-12-15T01:27:25;22.17;;;13.40;;
13683;SDS011;6914;53.552;9.908;2022-12-15T01:29:52;26.50;;;13.77;;
13683;SDS011;6914;53.552;9.908;2022-12-15T01:32:19;17.83;;;12.40;;
13683;SDS011;6914;53.552;9.908;2022-12-15T01:34:45;20.73;;;14.00;;
13683;SDS011;6914;53.552;9.908;2022-12-15T01:37:12;16.40;;;10.47;;
13683;SDS011;6914;53.552;9.908;2022-12-15T01:39:39;18.67;;;12.30;;
13683;SDS011;6914;53.552;9.908;2022-12-15T01:42:28;20.20;;;13.30;;
13683;SDS011;6914;53.552;9.908;2022-12-15T01:48:03;27.20;;;15.33;;
13683;SDS011;6914;53.552;9.908;2022-12-15T01:50:35;16.87;;;10.77;;
13683;SDS011;6914;53.552;9.908;2022-12-15T01:53:04;21.50;;;12.60;;
13683;SDS011;6914;53.552;9.908;2022-12-15T01:55:31;23.07;;;13.23;;
13683;SDS011;6914;53.552;9.908;2022-12-15T01:58:00;18.87;;;13.23;;
13683;SDS011;6914;53.552;9.908;2022-12-15T02:00:29;22.40;;;11.70;;
13683;SDS011;6914;53.552;9.908;2022-12-15T02:02:56;20.77;;;13.90;;
13683;SDS011;6914;53.552;9.908;2022-12-15T02:05:25;22.97;;;13.47;;
13683;SDS011;6914;53.552;9.908;2022-12-15T02:07:53;27.10;;;14.50;;
13683;SDS011;6914;53.552;9.908;2022-12-15T02:10:20;26.63;;;13.23;;
13683;SDS011;6914;53.552;9.908;2022-12-15T02:12:50;31.10;;;13.03;;
13683;SDS011;6914;53.552;9.908;2022-12-15T02:15:27;22.67;;;12.80;;
13683;SDS011;6914;53.552;9.908;2022-12-15T02:18:02;21.10;;;12.33;;
13683;SDS011;6914;53.552;9.908;2022-12-15T02:20:44;14.30;;;10.17;;
13683;SDS011;6914;53.552;9.908;2022-12-15T02:26:29;24.50;;;12.90;;
13683;SDS011;6914;53.552;9.908;2022-12-15T02:29:18;20.60;;;12.60;;
13683;SDS011;6914;53.552;9.908;2022-12-15T02:32:03;22.90;;;14.10;;
13683;SDS011;6914;53.552;9.908;2022-12-15T02:34:36;23.63;;;13.23;;
13683;SDS011;6914;53.552;9.908;2022-12-15T02:37:10;19.27;;;11.30;;
13683;SDS011;6914;53.552;9.908;2022-12-15T02:39:43;24.00;;;12.90;;
13683;SDS011;6914;53.552;9.908;2022-12-15T02:42:10;26.30;;;13.20;;
13683;SDS011;6914;53.552;9.908;2022-12-15T02:44:37;26.50;;;13.53;;
13683;SDS011;6914;53.552;9.908;2022-12-15T02:47:16;17.50;;;11.50;;
13683;SDS011;6914;53.552;9.908;2022-12-15T02:49:56;21.77;;;12.80;;
13683;SDS011;6914;53.552;9.908;2022-12-15T02:52:40;17.43;;;13.03;;
13683;SDS011;6914;53.552;9.908;2022-12-15T02:55:18;24.83;;;13.87;;
13683;SDS011;6914;53.552;9.908;2022-12-15T02:57:51;22.50;;;12.50;;
13683;SDS011;6914;53.552;9.908;2022-12-15T03:00:24;25.07;;;13.23;;
13683;SDS011;6914;53.552;9.908;2022-12-15T03:02:53;31.67;;;14.93;;
13683;SDS011;6914;53.552;9.908;2022-12-15T03:05:21;20.77;;;12.00;;
13683;SDS011;6914;53.552;9.908;2022-12-15T03:07:49;23.87;;;11.97;;
13683;SDS011;6914;53.552;9.908;2022-12-15T03:10:17;23.23;;;13.70;;
13683;SDS011;6914;53.552;9.908;2022-12-15T03:12:47;21.37;;;13.67;;
13683;SDS011;6914;53.552;9.908;2022-12-15T03:15:14;24.23;;;12.87;;
13683;SDS011;6914;53.552;9.908;2022-12-15T03:17:41;25.10;;;12.90;;
13683;SDS011;6914;53.552;9.908;2022-12-15T03:20:11;24.33;;;14.20;;
13683;SDS011;6914;53.552;9.908;2022-12-15T03:22:38;25.70;;;13.03;;
13683;SDS011;6914;53.552;9.908;2022-12-15T03:25:05;18.77;;;13.03;;
13683;SDS011;6914;53.552;9.908;2022-12-15T03:27:32;21.03;;;12.03;;
13683;SDS011;6914;53.552;9.908;2022-12-15T03:30:02;25.80;;;15.13;;
13683;SDS011;6914;53.552;9.908;2022-12-15T03:32:29;21.53;;;13.23;;
13683;SDS011;6914;53.552;9.908;2022-12-15T03:34:56;22.57;;;14.03;;
13683;SDS011;6914;53.552;9.908;2022-12-15T03:37:24;22.13;;;13.60;;
13683;SDS011;6914;53.552;9.908;2022-12-15T03:39:51;29.90;;;14.00;;
13683;SDS011;6914;53.552;9.908;2022-12-15T03:42:18;17.30;;;11.90;;
13683;SDS011;6914;53.552;9.908;2022-12-15T03:45:05;25.80;;;13.70;;
13683;SDS011;6914;53.552;9.908;2022-12-15T03:47:32;28.50;;;14.00;;
13683;SDS011;6914;53.552;9.908;2022-12-15T03:49:59;38.73;;;15.77;;
13683;SDS011;6914;53.552;9.908;2022-12-15T03:52:27;25.20;;;13.00;;
13683;SDS011;6914;53.552;9.908;2022-12-15T03:54:54;27.20;;;14.60;;
13683;SDS011;6914;53.552;9.908;2022-12-15T03:57:20;23.90;;;12.57;;
13683;SDS011;6914;53.552;9.908;2022-12-15T03:59:47;25.83;;;14.73;;
13683;SDS011;6914;53.552;9.908;2022-12-15T04:02:14;20.87;;;12.60;;
13683;SDS011;6914;53.552;9.908;2022-12-15T04:04:40;27.00;;;14.07;;
13683;SDS011;6914;53.552;9.908;2022-12-15T04:07:10;22.90;;;13.97;;
13683;SDS011;6914;53.552;9.908;2022-12-15T04:09:38;22.30;;;13.20;;
13683;SDS011;6914;53.552;9.908;2022-12-15T04:12:05;18.33;;;13.43;;
13683;SDS011;6914;53.552;9.908;2022-12-15T04:14:32;22.73;;;11.80;;
13683;SDS011;6914;53.552;9.908;2022-12-15T04:16:59;24.60;;;12.27;;
13683;SDS011;6914;53.552;9.908;2022-12-15T04:19:26;22.70;;;12.63;;
13683;SDS011;6914;53.552;9.908;2022-12-15T04:22:10;22.20;;;14.67;;
13683;SDS011;6914;53.552;9.908;2022-12-15T04:24:39;32.00;;;14.77;;
13683;SDS011;6914;53.552;9.908;2022-12-15T04:27:23;18.03;;;12.17;;
13683;SDS011;6914;53.552;9.908;2022-12-15T04:30:08;15.77;;;10.57;;
13683;SDS011;6914;53.552;9.908;2022-12-15T04:32:53;21.33;;;12.53;;
13683;SDS011;6914;53.552;9.908;2022-12-15T04:35:37;27.47;;;13.13;;
13683;SDS011;6914;53.552;9.908;2022-12-15T04:38:21;22.80;;;12.00;;
13683;SDS011;6914;53.552;9.908;2022-12-15T04:41:08;22.00;;;13.37;;
13683;SDS011;6914;53.552;9.908;2022-12-15T04:43:52;24.67;;;14.10;;
13683;SDS011;6914;53.552;9.908;2022-12-15T04:46:38;22.67;;;13.13;;
13683;SDS011;6914;53.552;9.908;2022-12-15T04:49:22;28.20;;;13.83;;
13683;SDS011;6914;53.552;9.908;2022-12-15T04:52:06;23.03;;;12.80;;
13683;SDS011;6914;53.552;9.908;2022-12-15T04:54:50;30.00;;;15.57;;
13683;SDS011;6914;53.552;9.908;2022-12-15T04:57:36;26.43;;;14.60;;
13683;SDS011;6914;53.552;9.908;2022-12-15T05:00:20;27.33;;;12.00;;
13683;SDS011;6914;53.552;9.908;2022-12-15T05:03:05;15.70;;;11.77;;
13683;SDS011;6914;53.552;9.908;2022-12-15T05:05:50;29.40;;;13.23;;
13683;SDS011;6914;53.552;9.908;2022-12-15T05:08:35;20.47;;;13.50;;
13683;SDS011;6914;53.552;9.908;2022-12-15T05:11:19;22.80;;;12.80;;
13683;SDS011;6914;53.552;9.908;2022-12-15T05:14:05;27.07;;;12.67;;
13683;SDS011;6914;53.552;9.908;2022-12-15T05:16:49;28.33;;;13.23;;
13683;SDS011;6914;53.552;9.908;2022-12-15T05:19:33;23.97;;;13.03;;
13683;SDS011;6914;53.552;9.908;2022-12-15T05:22:18;26.23;;;14.67;;
13683;SDS011;6914;53.552;9.908;2022-12-15T05:25:02;21.50;;;14.47;;
13683;SDS011;6914;53.552;9.908;2022-12-15T05:27:47;20.70;;;12.37;;
13683;SDS011;6914;53.552;9.908;2022-12-15T05:30:33;34.03;;;14.53;;
13683;SDS011;6914;53.552;9.908;2022-12-15T05:33:17;24.73;;;13.40;;
13683;SDS011;6914;53.552;9.908;2022-12-15T05:35:44;26.63;;;13.40;;
13683;SDS011;6914;53.552;9.908;2022-12-15T05:38:11;22.30;;;14.30;;
13683;SDS011;6914;53.552;9.908;2022-12-15T05:40:37;26.70;;;14.60;;
13683;SDS011;6914;53.552;9.908;2022-12-15T05:43:04;26.57;;;13.93;;
13683;SDS011;6914;53.552;9.908;2022-12-15T05:45:32;23.60;;;13.47;;
13683;SDS011;6914;53.552;9.908;2022-12-15T05:47:59;26.87;;;14.57;;
13683;SDS011;6914;53.552;9.908;2022-12-15T05:50:26;20.80;;;12.87;;
13683;SDS011;6914;53.552;9.908;2022-12-15T05:52:53;23.00;;;14.00;;
13683;SDS011;6914;53.552;9.908;2022-12-15T05:55:19;27.90;;;14.60;;
13683;SDS011;6914;53.552;9.908;2022-12-15T05:57:49;23.30;;;14.13;;
13683;SDS011;6914;53.552;9.908;2022-12-15T06:00:17;23.87;;;14.07;;
13683;SDS011;6914;53.552;9.908;2022-12-15T06:02:45;24.03;;;13.70;;
13683;SDS011;6914;53.552;9.908;2022-12-15T06:05:12;29.10;;;14.37;;
13683;SDS011;6914;53.552;9.908;2022-12-15T06:07:39;30.77;;;15.13;;
13683;SDS011;6914;53.552;9.908;2022-12-15T06:10:07;32.97;;;15.50;;
13683;SDS011;6914;53.552;9.908;2022-12-15T06:12:34;31.67;;;15.50;;
13683;SDS011;6914;53.552;9.908;2022-12-15T06:15:01;21.57;;;14.07;;
13683;SDS011;6914;53.552;9.908;2022-12-15T06:17:28;25.37;;;14.07;;
13683;SDS011;6914;53.552;9.908;2022-12-15T06:19:56;23.27;;;14.00;;
13683;SDS011;6914;53.552;9.908;2022-12-15T06:22:23;23.90;;;13.87;;
13683;SDS011;6914;53.552;9.908;2022-12-15T06:24:50;17.33;;;11.17;;
13683;SDS011;6914;53.552;9.908;2022-12-15T06:27:16;28.23;;;14.50;;
13683;SDS011;6914;53.552;9.908;2022-12-15T06:29:44;19.37;;;13.27;;
13683;SDS011;6914;53.552;9.908;2022-12-15T06:32:10;22.67;;;13.30;;
13683;SDS011;6914;53.552;9.908;2022-12-15T06:34:37;23.73;;;15.30;;
13683;SDS011;6914;53.552;9.908;2022-12-15T06:37:05;24.17;;;13.80;;
13683;SDS011;6914;53.552;9.908;2022-12-15T06:39:32;29.57;;;16.30;;
13683;SDS011;6914;53.552;9.908;2022-12-15T06:41:59;26.30;;;14.47;;
13683;SDS011;6914;53.552;9.908;2022-12-15T06:44:25;27.83;;;14.50;;
13683;SDS011;6914;53.552;9.908;2022-12-15T06:46:53;26.43;;;14.60;;
13683;SDS011;6914;53.552;9.908;2022-12-15T06:49:20;32.37;;;16.03;;
13683;SDS011;6914;53.552;9.908;2022-12-15T06:51:47;28.50;;;15.33;;
13683;SDS011;6914;53.552;9.908;2022-12-15T06:54:16;25.17;;;15.10;;
13683;SDS011;6914;53.552;9.908;2022-12-15T06:56:46;38.23;;;13.53;;
13683;SDS011;6914;53.552;9.908;2022-12-15T06:59:12;25.17;;;13.20;;
13683;SDS011;6914;53.552;9.908;2022-12-15T07:01:39;25.40;;;15.43;;
13683;SDS011;6914;53.552;9.908;2022-12-15T07:04:06;26.43;;;15.00;;
13683;SDS011;6914;53.552;9.908;2022-12-15T07:06:35;26.37;;;14.93;;
13683;SDS011;6914;53.552;9.908;2022-12-15T07:09:03;27.87;;;15.27;;
13683;SDS011;6914;53.552;9.908;2022-12-15T07:11:33;41.70;;;16.10;;
13683;SDS011;6914;53.552;9.908;2022-12-15T07:14:00;23.83;;;13.67;;
13683;SDS011;6914;53.552;9.908;2022-12-15T07:16:27;25.67;;;15.60;;
13683;SDS011;6914;53.552;9.908;2022-12-15T07:18:54;33.70;;;14.20;;
13683;SDS011;6914;53.552;9.908;2022-12-15T07:21:20;23.47;;;15.63;;
13683;SDS011;6914;53.552;9.908;2022-12-15T07:23:47;24.07;;;15.83;;
13683;SDS011;6914;53.552;9.908;2022-12-15T07:26:14;33.13;;;14.77;;
13683;SDS011;6914;53.552;9.908;2022-12-15T07:28:42;22.70;;;14.50;;
13683;SDS011;6914;53.552;9.908;2022-12-15T07:31:09;28.93;;;14.97;;
13683;SDS011;6914;53.552;9.908;2022-12-15T07:33:37;27.07;;;15.50;;
13683;SDS011;6914;53.552;9.908;2022-12-15T07:36:04;27.00;;;16.57;;
13683;SDS011;6914;53.552;9.908;2022-12-15T07:38:32;26.50;;;16.27;;
13683;SDS011;6914;53.552;9.908;2022-12-15T07:41:00;26.97;;;15.77;;
13683;SDS011;6914;53.552;9.908;2022-12-15T07:43:28;30.37;;;15.83;;
13683;SDS011;6914;53.552;9.908;2022-12-15T07:45:57;20.97;;;13.53;;
13683;SDS011;6914;53.552;9.908;2022-12-15T07:48:25;28.63;;;14.33;;
13683;SDS011;6914;53.552;9.908;2022-12-15T07:50:53;25.53;;;15.40;;
13683;SDS011;6914;53.552;9.908;2022-12-15T07:53:23;23.83;;;14.67;;
13683;SDS011;6914;53.552;9.908;2022-12-15T07:55:54;18.67;;;13.13;;
13683;SDS011;6914;53.552;9.908;2022-12-15T07:58:22;31.23;;;17.17;;
13683;SDS011;6914;53.552;9.908;2022-12-15T08:00:50;27.40;;;15.30;;
13683;SDS011;6914;53.552;9.908;2022-12-15T08:03:18;21.97;;;13.17;;
13683;SDS011;6914;53.552;9.908;2022-12-15T08:05:46;33.87;;;17.10;;
13683;SDS011;6914;53.552;9.908;2022-12-15T08:08:12;28.10;;;15.43;;
13683;SDS011;6914;53.552;9.908;2022-12-15T08:10:39;31.67;;;14.97;;
13683;SDS011;6914;53.552;9.908;2022-12-15T08:13:13;20.83;;;14.00;;
13683;SDS011;6914;53.552;9.908;2022-12-15T08:15:41;23.53;;;15.20;;
13683;SDS011;6914;53.552;9.908;2022-12-15T08:18:11;24.47;;;14.13;;
13683;SDS011;6914;53.552;9.908;2022-12-15T08:20:39;29.73;;;14.90;;
13683;SDS011;6914;53.552;9.908;2022-12-15T08:23:08;22.73;;;14.40;;
13683;SDS011;6914;53.552;9.908;2022-12-15T08:25:35;25.33;;;14.40;;
13683;SDS011;6914;53.552;9.908;2022-12-15T08:28:02;26.87;;;14.97;;
13683;SDS011;6914;53.552;9.908;2022-12-15T08:30:29;27.93;;;14.77;;
13683;SDS011;6914;53.552;9.908;2022-12-15T08:32:57;23.23;;;14.60;;
13683;SDS011;6914;53.552;9.908;2022-12-15T08:35:24;22.23;;;14.20;;
13683;SDS011;6914;53.552;9.908;2022-12-15T08:37:53;24.30;;;14.73;;
13683;SDS011;6914;53.552;9.908;2022-12-15T08:40:20;20.43;;;14.43;;
13683;SDS011;6914;53.552;9.908;2022-12-15T08:42:47;21.30;;;15.37;;
13683;SDS011;6914;53.552;9.908;2022-12-15T08:45:13;24.33;;;15.60;;
13683;SDS011;6914;53.552;9.908;2022-12-15T08:47:46;26.63;;;15.30;;
13683;SDS011;6914;53.552;9.908;2022-12-15T08:50:14;23.40;;;14.37;;
13683;SDS011;6914;53.552;9.908;2022-12-15T08:52:41;20.93;;;14.60;;
13683;SDS011;6914;53.552;9.908;2022-12-15T08:55:13;36.43;;;16.20;;
13683;SDS011;6914;53.552;9.908;2022-12-15T08:57:40;24.73;;;13.90;;
13683;SDS011;6914;53.552;9.908;2022-12-15T09:00:07;23.17;;;14.07;;
13683;SDS011;6914;53.552;9.908;2022-12-15T09:02:35;21.23;;;16.40;;
13683;SDS011;6914;53.552;9.908;2022-12-15T09:05:01;28.40;;;16.17;;
13683;SDS011;6914;53.552;9.908;2022-12-15T09:07:30;31.60;;;14.60;;
13683;SDS011;6914;53.552;9.908;2022-12-15T09:09:57;20.27;;;14.27;;
13683;SDS011;6914;53.552;9.908;2022-12-15T09:12:25;26.13;;;15.30;;
13683;SDS011;6914;53.552;9.908;2022-12-15T09:14:52;24.07;;;14.40;;
13683;SDS011;6914;53.552;9.908;2022-12-15T09:17:19;23.37;;;15.10;;
13683;SDS011;6914;53.552;9.908;2022-12-15T09:19:46;24.50;;;13.83;;
13683;SDS011;6914;53.552;9.908;2022-12-15T09:22:12;21.60;;;13.00;;
13683;SDS011;6914;53.552;9.908;2022-12-15T09:24:39;24.90;;;15.00;;
13683;SDS011;6914;53.552;9.908;2022-12-15T09:27:06;36.23;;;15.63;;
13683;SDS011;6914;53.552;9.908;2022-12-15T09:29:34;25.17;;;14.70;;
13683;SDS011;6914;53.552;9.908;2022-12-15T09:32:01;21.07;;;13.67;;
13683;SDS011;6914;53.552;9.908;2022-12-15T09:34:28;26.13;;;14.63;;
13683;SDS011;6914;53.552;9.908;2022-12-15T09:36:55;23.17;;;14.87;;
13683;SDS011;6914;53.552;9.908;2022-12-15T09:39:22;29.57;;;14.20;;
13683;SDS011;6914;53.552;9.908;2022-12-15T09:41:51;23.30;;;14.10;;
13683;SDS011;6914;53.552;9.908;2022-12-15T09:44:21;24.47;;;15.00;;
13683;SDS011;6914;53.552;9.908;2022-12-15T09:46:56;23.70;;;14.40;;
13683;SDS011;6914;53.552;9.908;2022-12-15T09:49:48;21.07;;;13.63;;
13683;SDS011;6914;53.552;9.908;2022-12-15T09:52:21;26.00;;;14.50;;
13683;SDS011;6914;53.552;9.908;2022-12-15T09:54:50;26.10;;;16.00;;
13683;SDS011;6914;53.552;9.908;2022-12-15T09:57:30;25.97;;;13.17;;
13683;SDS011;6914;53.552;9.908;2022-12-15T10:00:08;21.80;;;13.83;;
13683;SDS011;6914;53.552;9.908;2022-12-15T10:02:49;31.53;;;15.27;;
13683;SDS011;6914;53.552;9.908;2022-12-15T10:05:37;27.03;;;15.33;;
13683;SDS011;6914;53.552;9.908;2022-12-15T10:08:14;22.03;;;13.53;;
13683;SDS011;6914;53.552;9.908;2022-12-15T10:10:42;25.97;;;15.00;;
13683;SDS011;6914;53.552;9.908;2022-12-15T10:13:16;25.03;;;14.73;;
13683;SDS011;6914;53.552;9.908;2022-12-15T10:15:48;25.53;;;13.60;;
13683;SDS011;6914;53.552;9.908;2022-12-15T10:18:20;24.57;;;13.57;;
13683;SDS011;6914;53.552;9.908;2022-12-15T10:20:50;39.83;;;16.17;;
13683;SDS011;6914;53.552;9.908;2022-12-15T10:23:18;21.93;;;13.67;;
13683;SDS011;6914;53.552;9.908;2022-12-15T10:25:46;26.60;;;15.27;;
13683;SDS011;6914;53.552;9.908;2022-12-15T10:28:20;24.80;;;12.90;;
13683;SDS011;6914;53.552;9.908;2022-12-15T10:31:00;27.80;;;15.60;;
13683;SDS011;6914;53.552;9.908;2022-12-15T10:33:34;27.37;;;15.37;;
13683;SDS011;6914;53.552;9.908;2022-12-15T10:36:04;23.33;;;14.73;;
13683;SDS011;6914;53.552;9.908;2022-12-15T10:38:35;26.80;;;14.87;;
13683;SDS011;6914;53.552;9.908;2022-12-15T10:41:05;18.83;;;12.20;;
13683;SDS011;6914;53.552;9.908;2022-12-15T10:43:34;27.40;;;16.53;;
13683;SDS011;6914;53.552;9.908;2022-12-15T10:46:05;26.80;;;16.50;;
13683;SDS011;6914;53.552;9.908;2022-12-15T10:48:39;23.40;;;15.93;;
13683;SDS011;6914;53.552;9.908;2022-12-15T10:51:13;30.27;;;16.07;;
13683;SDS011;6914;53.552;9.908;2022-12-15T10:53:44;21.03;;;14.30;;
13683;SDS011;6914;53.552;9.908;2022-12-15T10:56:17;23.93;;;13.23;;
13683;SDS011;6914;53.552;9.908;2022-12-15T10:58:47;26.97;;;15.57;;
13683;SDS011;6914;53.552;9.908;2022-12-15T11:01:19;32.60;;;17.30;;
13683;SDS011;6914;53.552;9.908;2022-12-15T11:03:50;24.47;;;15.17;;
13683;SDS011;6914;53.552;9.908;2022-12-15T11:06:20;24.20;;;14.83;;
13683;SDS011;6914;53.552;9.908;2022-12-15T11:08:49;25.27;;;16.00;;
13683;SDS011;6914;53.552;9.908;2022-12-15T11:11:28;25.63;;;13.53;;
13683;SDS011;6914;53.552;9.908;2022-12-15T11:14:16;26.90;;;15.60;;
13683;SDS011;6914;53.552;9.908;2022-12-15T11:16:46;21.20;;;13.33;;
13683;SDS011;6914;53.552;9.908;2022-12-15T11:19:32;21.33;;;14.83;;
13683;SDS011;6914;53.552;9.908;2022-12-15T11:22:04;25.70;;;12.27;;
13683;SDS011;6914;53.552;9.908;2022-12-15T11:24:39;20.73;;;13.60;;
13683;SDS011;6914;53.552;9.908;2022-12-15T11:27:16;15.07;;;11.77;;
13683;SDS011;6914;53.552;9.908;2022-12-15T11:29:55;28.87;;;12.67;;
13683;SDS011;6914;53.552;9.908;2022-12-15T11:32:26;26.80;;;13.90;;
13683;SDS011;6914;53.552;9.908;2022-12-15T11:34:58;24.70;;;14.27;;
13683;SDS011;6914;53.552;9.908;2022-12-15T11:37:35;24.60;;;14.70;;
13683;SDS011;6914;53.552;9.908;2022-12-15T11:40:18;19.20;;;14.60;;
13683;SDS011;6914;53.552;9.908;2022-12-15T11:43:00;16.67;;;12.47;;
13683;SDS011;6914;53.552;9.908;2022-12-15T11:45:39;18.07;;;11.23;;
13683;SDS011;6914;53.552;9.908;2022-12-15T11:48:16;21.57;;;12.90;;
13683;SDS011;6914;53.552;9.908;2022-12-15T11:50:54;15.17;;;11.50;;
13683;SDS011;6914;53.552;9.908;2022-12-15T11:53:34;21.07;;;11.23;;
13683;SDS011;6914;53.552;9.908;2022-12-15T11:56:11;25.27;;;12.90;;
13683;SDS011;6914;53.552;9.908;2022-12-15T11:58:54;20.90;;;12.57;;
13683;SDS011;6914;53.552;9.908;2022-12-15T12:01:54;19.50;;;12.80;;
13683;SDS011;6914;53.552;9.908;2022-12-15T12:04:34;14.53;;;11.37;;
13683;SDS011;6914;53.552;9.908;2022-12-15T12:07:10;18.10;;;12.17;;
13683;SDS011;6914;53.552;9.908;2022-12-15T12:09:44;19.77;;;11.90;;
13683;SDS011;6914;53.552;9.908;2022-12-15T12:12:26;16.20;;;12.10;;
13683;SDS011;6914;53.552;9.908;2022-12-15T12:15:02;14.33;;;10.93;;
13683;SDS011;6914;53.552;9.908;2022-12-15T12:17:45;19.03;;;10.60;;
13683;SDS011;6914;53.552;9.908;2022-12-15T12:20:18;17.70;;;10.67;;
13683;SDS011;6914;53.552;9.908;2022-12-15T12:22:52;13.70;;;11.03;;
13683;SDS011;6914;53.552;9.908;2022-12-15T12:25:26;16.17;;;12.60;;
13683;SDS011;6914;53.552;9.908;2022-12-15T12:27:56;17.57;;;12.20;;
13683;SDS011;6914;53.552;9.908;2022-12-15T12:30:28;14.07;;;10.93;;
13683;SDS011;6914;53.552;9.908;2022-12-15T12:33:02;16.70;;;12.10;;
13683;SDS011;6914;53.552;9.908;2022-12-15T12:35:36;18.03;;;10.63;;
13683;SDS011;6914;53.552;9.908;2022-12-15T12:38:11;14.50;;;10.57;;
13683;SDS011;6914;53.552;9.908;2022-12-15T12:40:49;29.33;;;10.73;;
13683;SDS011;6914;53.552;9.908;2022-12-15T12:43:25;17.60;;;11.57;;
13683;SDS011;6914;53.552;9.908;2022-12-15T12:45:58;19.43;;;11.97;;
13683;SDS011;6914;53.552;9.908;2022-12-15T12:48:30;19.90;;;11.47;;
13683;SDS011;6914;53.552;9.908;2022-12-15T12:51:08;17.30;;;10.50;;
13683;SDS011;6914;53.552;9.908;2022-12-15T12:53:40;15.23;;;11.97;;
13683;SDS011;6914;53.552;9.908;2022-12-15T12:56:07;17.10;;;10.43;;
13683;SDS011;6914;53.552;9.908;2022-12-15T12:58:55;18.20;;;10.97;;
13683;SDS011;6914;53.552;9.908;2022-12-15T13:01:24;20.97;;;10.77;;
13683;SDS011;6914;53.552;9.908;2022-12-15T13:04:04;21.20;;;11.80;;
13683;SDS011;6914;53.552;9.908;2022-12-15T13:09:24;15.00;;;11.30;;
13683;SDS011;6914;53.552;9.908;2022-12-15T13:12:03;13.30;;;10.00;;
13683;SDS011;6914;53.552;9.908;2022-12-15T13:14:34;16.20;;;10.17;;
13683;SDS011;6914;53.552;9.908;2022-12-15T13:17:10;15.83;;;9.93;;
13683;SDS011;6914;53.552;9.908;2022-12-15T13:22:35;15.40;;;10.27;;
13683;SDS011;6914;53.552;9.908;2022-12-15T13:28:17;16.77;;;9.93;;
13683;SDS011;6914;53.552;9.908;2022-12-15T13:33:42;17.80;;;10.50;;
13683;SDS011;6914;53.552;9.908;2022-12-15T13:36:10;18.90;;;11.33;;
13683;SDS011;6914;53.552;9.908;2022-12-15T13:38:50;16.37;;;10.23;;
13683;SDS011;6914;53.552;9.908;2022-12-15T13:41:21;16.30;;;11.07;;
13683;SDS011;6914;53.552;9.908;2022-12-15T13:43:50;11.53;;;9.37;;
13683;SDS011;6914;53.552;9.908;2022-12-15T13:46:21;23.40;;;10.73;;
13683;SDS011;6914;53.552;9.908;2022-12-15T13:48:54;17.00;;;9.90;;
13683;SDS011;6914;53.552;9.908;2022-12-15T13:51:32;15.73;;;11.43;;
13683;SDS011;6914;53.552;9.908;2022-12-15T13:54:02;21.13;;;11.30;;
13683;SDS011;6914;53.552;9.908;2022-12-15T13:56:50;14.73;;;9.80;;
13683;SDS011;6914;53.552;9.908;2022-12-15T13:59:28;28.53;;;10.53;;
13683;SDS011;6914;53.552;9.908;2022-12-15T14:02:00;18.23;;;9.83;;
13683;SDS011;6914;53.552;9.908;2022-12-15T14:04:27;15.47;;;9.90;;
13683;SDS011;6914;53.552;9.908;2022-12-15T14:06:55;13.33;;;10.40;;
13683;SDS011;6914;53.552;9.908;2022-12-15T14:09:24;20.00;;;9.97;;
13683;SDS011;6914;53.552;9.908;2022-12-15T14:11:54;14.70;;;9.70;;
13683;SDS011;6914;53.552;9.908;2022-12-15T14:14:22;13.80;;;10.10;;
13683;SDS011;6914;53.552;9.908;2022-12-15T14:16:53;11.43;;;8.73;;
13683;SDS011;6914;53.552;9.908;2022-12-15T14:19:25;12.77;;;8.27;;
13683;SDS011;6914;53.552;9.908;2022-12-15T14:22:00;13.53;;;9.50;;
13683;SDS011;6914;53.552;9.908;2022-12-15T14:24:28;12.20;;;9.00;;
13683;SDS011;6914;53.552;9.908;2022-12-15T14:26:56;12.67;;;10.10;;
13683;SDS011;6914;53.552;9.908;2022-12-15T14:29:23;12.60;;;8.60;;
13683;SDS011;6914;53.552;9.908;2022-12-15T14:31:53;10.53;;;9.43;;
13683;SDS011;6914;53.552;9.908;2022-12-15T14:34:23;16.43;;;9.93;;
13683;SDS011;6914;53.552;9.908;2022-12-15T14:36:52;11.97;;;8.70;;
13683;SDS011;6914;53.552;9.908;2022-12-15T14:39:23;20.43;;;9.70;;
13683;SDS011;6914;53.552;9.908;2022-12-15T14:41:53;9.10;;;8.00;;
13683;SDS011;6914;53.552;9.908;2022-12-15T14:44:25;18.93;;;8.23;;
13683;SDS011;6914;53.552;9.908;2022-12-15T14:46:57;18.73;;;9.73;;
13683;SDS011;6914;53.552;9.908;2022-12-15T14:49:28;10.60;;;8.83;;
13683;SDS011;6914;53.552;9.908;2022-12-15T14:51:58;12.50;;;8.73;;
13683;SDS011;6914;53.552;9.908;2022-12-15T14:54:28;12.77;;;8.83;;
13683;SDS011;6914;53.552;9.908;2022-12-15T14:56:58;13.27;;;9.23;;
13683;SDS011;6914;53.552;9.908;2022-12-15T14:59:28;22.90;;;11.07;;
13683;SDS011;6914;53.552;9.908;2022-12-15T15:02:00;14.40;;;9.73;;
13683;SDS011;6914;53.552;9.908;2022-12-15T15:04:36;16.10;;;9.87;;
13683;SDS011;6914;53.552;9.908;2022-12-15T15:07:04;11.33;;;10.03;;
13683;SDS011;6914;53.552;9.908;2022-12-15T15:09:37;29.50;;;11.60;;
13683;SDS011;6914;53.552;9.908;2022-12-15T15:12:05;14.37;;;8.90;;
13683;SDS011;6914;53.552;9.908;2022-12-15T15:14:36;20.40;;;9.90;;
13683;SDS011;6914;53.552;9.908;2022-12-15T15:17:11;20.70;;;9.87;;
13683;SDS011;6914;53.552;9.908;2022-12-15T15:19:48;12.80;;;9.67;;
13683;SDS011;6914;53.552;9.908;2022-12-15T15:22:30;16.13;;;9.80;;
13683;SDS011;6914;53.552;9.908;2022-12-15T15:25:01;15.07;;;11.10;;
13683;SDS011;6914;53.552;9.908;2022-12-15T15:27:49;14.27;;;10.20;;